createdAt,value
2024-03-16T00:19:09.284Z,54.8
2024-03-16T00:39:08.958Z,54.8
2024-03-16T00:59:08.965Z,54.8
2024-03-16T01:39:08.862Z,54.9
2024-03-16T01:59:08.813Z,54.9
2024-03-16T02:19:08.789Z,54.9
2024-03-16T02:39:08.999Z,54.9
2024-03-16T02:59:08.985Z,54.9
2024-03-16T03:19:08.708Z,55.0
2024-03-16T03:39:08.972Z,55.1
2024-03-16T03:59:08.674Z,55.1
2024-03-16T04:19:08.711Z,55.1
2024-03-16T04:39:08.608Z,55.1
2024-03-16T04:59:08.571Z,55.2
2024-03-16T05:19:08.856Z,55.1
2024-03-16T05:39:08.627Z,54.9
2024-03-16T05:59:08.882Z,54.8
2024-03-16T06:19:08.459Z,54.7
2024-03-16T06:39:08.474Z,54.7
2024-03-16T06:59:08.431Z,54.7
2024-03-16T07:19:08.438Z,54.8
2024-03-16T07:39:08.399Z,54.9
2024-03-16T07:59:08.380Z,55.3
2024-03-16T08:19:08.323Z,55.6
2024-03-16T08:39:08.321Z,55.4
2024-03-16T08:59:08.297Z,55.3
2024-03-16T09:19:08.263Z,55.0
2024-03-16T09:39:08.255Z,54.9
2024-03-16T09:59:08.213Z,54.8
2024-03-16T10:19:08.172Z,54.8
2024-03-16T10:39:08.133Z,54.7
2024-03-16T10:59:08.139Z,54.7
2024-03-16T11:19:08.440Z,54.7
2024-03-16T11:39:08.085Z,54.7
2024-03-16T11:59:08.190Z,54.7
2024-03-16T12:19:08.041Z,54.7
2024-03-16T12:39:08.186Z,54.6
2024-03-16T12:59:08.307Z,54.7
2024-03-16T13:19:08.277Z,54.6
2024-03-16T13:39:08.294Z,54.7
2024-03-16T13:59:08.037Z,54.6
2024-03-16T14:19:08.017Z,54.6
2024-03-16T14:39:08.131Z,54.6
2024-03-16T14:59:08.151Z,54.6
2024-03-16T15:19:07.869Z,54.6
2024-03-16T15:39:07.971Z,54.6
2024-03-16T15:59:07.747Z,54.6
2024-03-16T16:19:07.713Z,54.5
2024-03-16T16:39:07.919Z,54.5
2024-03-16T16:59:07.668Z,54.5
2024-03-16T17:19:07.633Z,54.4
2024-03-16T17:39:07.606Z,54.3
2024-03-16T17:59:07.577Z,54.2
2024-03-16T18:19:07.563Z,54.2
2024-03-16T18:39:07.527Z,54.1
2024-03-16T18:59:07.516Z,54.1
2024-03-16T19:19:07.460Z,54.0
2024-03-16T19:39:07.455Z,53.9
2024-03-16T19:59:07.473Z,54.0
2024-03-16T20:19:07.428Z,53.9
2024-03-16T20:39:07.397Z,54.0
2024-03-16T20:59:07.330Z,54.0
2024-03-16T21:19:07.344Z,53.9
2024-03-16T21:39:07.321Z,53.9
2024-03-16T21:59:07.321Z,53.9
2024-03-16T22:19:07.249Z,53.9
2024-03-16T22:39:07.252Z,53.7
2024-03-16T22:59:07.241Z,53.7
2024-03-16T23:19:07.203Z,53.8
2024-03-16T23:39:07.181Z,53.8
2024-03-16T23:59:07.111Z,53.9
